sensor_id;sensor_type;location;lat;lon;timestamp;P1;durP1;ratioP1;P2;durP2;ratioP2
25153;SDS011;47555;51.038;6.280;2023-01-28T00:00:04;10.23;;;7.05;;
25153;SDS011;47555;51.038;6.280;2023-01-28T00:02:32;11.40;;;6.40;;
25153;SDS011;47555;51.038;6.280;2023-01-28T00:04:57;13.07;;;7.25;;
25153;SDS011;47555;51.038;6.280;2023-01-28T00:07:23;12.52;;;7.78;;
25153;SDS011;47555;51.038;6.280;2023-01-28T00:09:48;12.40;;;7.15;;
25153;SDS011;47555;51.038;6.280;2023-01-28T00:12:14;13.73;;;7.38;;
25153;SDS011;47555;51.038;6.280;2023-01-28T00:14:40;12.63;;;6.60;;
25153;SDS011;47555;51.038;6.280;2023-01-28T00:17:05;13.07;;;7.63;;
25153;SDS011;47555;51.038;6.280;2023-01-28T00:19:31;11.98;;;7.05;;
25153;SDS011;47555;51.038;6.280;2023-01-28T00:21:56;12.65;;;7.32;;
25153;SDS011;47555;51.038;6.280;2023-01-28T00:24:22;13.65;;;7.65;;
25153;SDS011;47555;51.038;6.280;2023-01-28T00:26:47;14.07;;;6.85;;
25153;SDS011;47555;51.038;6.280;2023-01-28T00:29:13;14.23;;;7.22;;
25153;SDS011;47555;51.038;6.280;2023-01-28T00:31:38;16.52;;;7.70;;
25153;SDS011;47555;51.038;6.280;2023-01-28T00:34:05;14.55;;;7.88;;
25153;SDS011;47555;51.038;6.280;2023-01-28T00:36:31;13.93;;;7.85;;
25153;SDS011;47555;51.038;6.280;2023-01-28T00:38:58;16.85;;;7.20;;
25153;SDS011;47555;51.038;6.280;2023-01-28T00:41:25;15.45;;;7.65;;
25153;SDS011;47555;51.038;6.280;2023-01-28T00:43:52;12.32;;;7.28;;
25153;SDS011;47555;51.038;6.280;2023-01-28T00:46:18;16.02;;;7.82;;
25153;SDS011;47555;51.038;6.280;2023-01-28T00:48:45;14.77;;;8.15;;
25153;SDS011;47555;51.038;6.280;2023-01-28T00:51:12;14.93;;;7.70;;
25153;SDS011;47555;51.038;6.280;2023-01-28T00:53:41;14.10;;;8.00;;
25153;SDS011;47555;51.038;6.280;2023-01-28T00:56:07;18.10;;;8.27;;
25153;SDS011;47555;51.038;6.280;2023-01-28T00:58:36;14.35;;;8.27;;
25153;SDS011;47555;51.038;6.280;2023-01-28T01:03:34;16.05;;;7.78;;
25153;SDS011;47555;51.038;6.280;2023-01-28T01:06:00;14.77;;;7.88;;
25153;SDS011;47555;51.038;6.280;2023-01-28T01:08:25;15.70;;;8.18;;
25153;SDS011;47555;51.038;6.280;2023-01-28T01:10:59;18.35;;;8.93;;
25153;SDS011;47555;51.038;6.280;2023-01-28T01:13:28;17.17;;;8.70;;
25153;SDS011;47555;51.038;6.280;2023-01-28T01:16:01;16.48;;;8.50;;
25153;SDS011;47555;51.038;6.280;2023-01-28T01:18:27;17.63;;;9.27;;
25153;SDS011;47555;51.038;6.280;2023-01-28T01:20:52;16.45;;;8.55;;
25153;SDS011;47555;51.038;6.280;2023-01-28T01:23:22;16.52;;;9.30;;
25153;SDS011;47555;51.038;6.280;2023-01-28T01:25:52;19.63;;;9.30;;
25153;SDS011;47555;51.038;6.280;2023-01-28T01:28:19;19.10;;;9.32;;
25153;SDS011;47555;51.038;6.280;2023-01-28T01:30:46;17.80;;;8.60;;
25153;SDS011;47555;51.038;6.280;2023-01-28T01:33:12;19.75;;;8.90;;
25153;SDS011;47555;51.038;6.280;2023-01-28T01:35:37;17.55;;;9.73;;
25153;SDS011;47555;51.038;6.280;2023-01-28T01:38:03;19.70;;;9.55;;
25153;SDS011;47555;51.038;6.280;2023-01-28T01:40:29;18.52;;;8.82;;
25153;SDS011;47555;51.038;6.280;2023-01-28T01:42:54;17.77;;;9.75;;
25153;SDS011;47555;51.038;6.280;2023-01-28T01:45:20;19.15;;;9.52;;
25153;SDS011;47555;51.038;6.280;2023-01-28T01:47:46;19.73;;;10.32;;
25153;SDS011;47555;51.038;6.280;2023-01-28T01:50:38;18.63;;;10.00;;
25153;SDS011;47555;51.038;6.280;2023-01-28T01:53:35;18.48;;;9.88;;
25153;SDS011;47555;51.038;6.280;2023-01-28T01:56:03;18.55;;;9.73;;
25153;SDS011;47555;51.038;6.280;2023-01-28T01:58:34;18.02;;;9.90;;
25153;SDS011;47555;51.038;6.280;2023-01-28T02:01:03;14.68;;;9.30;;
25153;SDS011;47555;51.038;6.280;2023-01-28T02:06:27;14.80;;;8.77;;
25153;SDS011;47555;51.038;6.280;2023-01-28T02:08:54;19.77;;;9.20;;
25153;SDS011;47555;51.038;6.280;2023-01-28T02:11:21;16.85;;;9.13;;
25153;SDS011;47555;51.038;6.280;2023-01-28T02:13:53;19.00;;;9.65;;
25153;SDS011;47555;51.038;6.280;2023-01-28T02:16:21;23.75;;;10.00;;
25153;SDS011;47555;51.038;6.280;2023-01-28T02:18:48;18.30;;;9.80;;
25153;SDS011;47555;51.038;6.280;2023-01-28T02:21:34;20.13;;;9.80;;
25153;SDS011;47555;51.038;6.280;2023-01-28T02:29:56;17.67;;;10.20;;
25153;SDS011;47555;51.038;6.280;2023-01-28T02:37:46;19.33;;;11.15;;
25153;SDS011;47555;51.038;6.280;2023-01-28T02:40:22;19.10;;;9.95;;
25153;SDS011;47555;51.038;6.280;2023-01-28T02:42:53;19.70;;;10.63;;
25153;SDS011;47555;51.038;6.280;2023-01-28T02:48:15;24.35;;;11.40;;
25153;SDS011;47555;51.038;6.280;2023-01-28T02:50:53;20.92;;;10.70;;
25153;SDS011;47555;51.038;6.280;2023-01-28T02:53:49;23.80;;;11.95;;
25153;SDS011;47555;51.038;6.280;2023-01-28T02:56:27;22.90;;;11.75;;
25153;SDS011;47555;51.038;6.280;2023-01-28T02:59:12;22.10;;;11.60;;
25153;SDS011;47555;51.038;6.280;2023-01-28T03:04:46;25.83;;;13.20;;
25153;SDS011;47555;51.038;6.280;2023-01-28T03:07:34;26.55;;;13.48;;
25153;SDS011;47555;51.038;6.280;2023-01-28T03:10:04;26.38;;;13.35;;
25153;SDS011;47555;51.038;6.280;2023-01-28T03:12:33;28.67;;;14.27;;
25153;SDS011;47555;51.038;6.280;2023-01-28T03:15:21;29.58;;;14.52;;
25153;SDS011;47555;51.038;6.280;2023-01-28T03:18:10;29.00;;;14.23;;
25153;SDS011;47555;51.038;6.280;2023-01-28T03:23:52;31.95;;;15.77;;
25153;SDS011;47555;51.038;6.280;2023-01-28T03:26:53;29.38;;;14.18;;
25153;SDS011;47555;51.038;6.280;2023-01-28T03:29:43;32.05;;;14.05;;
25153;SDS011;47555;51.038;6.280;2023-01-28T03:32:28;28.42;;;13.85;;
25153;SDS011;47555;51.038;6.280;2023-01-28T03:35:13;24.88;;;11.52;;
25153;SDS011;47555;51.038;6.280;2023-01-28T03:38:00;23.92;;;12.75;;
25153;SDS011;47555;51.038;6.280;2023-01-28T03:43:21;19.30;;;11.30;;
25153;SDS011;47555;51.038;6.280;2023-01-28T03:45:47;21.48;;;12.07;;
25153;SDS011;47555;51.038;6.280;2023-01-28T03:48:16;19.88;;;10.85;;
25153;SDS011;47555;51.038;6.280;2023-01-28T03:50:46;21.60;;;10.82;;
25153;SDS011;47555;51.038;6.280;2023-01-28T03:53:13;18.75;;;11.15;;
25153;SDS011;47555;51.038;6.280;2023-01-28T03:55:42;21.83;;;11.70;;
25153;SDS011;47555;51.038;6.280;2023-01-28T03:58:09;20.65;;;10.85;;
25153;SDS011;47555;51.038;6.280;2023-01-28T04:00:34;20.00;;;10.85;;
25153;SDS011;47555;51.038;6.280;2023-01-28T04:03:13;21.70;;;11.38;;
25153;SDS011;47555;51.038;6.280;2023-01-28T04:05:56;19.80;;;10.48;;
25153;SDS011;47555;51.038;6.280;2023-01-28T04:08:24;20.88;;;11.38;;
25153;SDS011;47555;51.038;6.280;2023-01-28T04:10:49;18.55;;;10.18;;
25153;SDS011;47555;51.038;6.280;2023-01-28T04:13:15;17.77;;;10.68;;
25153;SDS011;47555;51.038;6.280;2023-01-28T04:15:42;20.45;;;10.13;;
25153;SDS011;47555;51.038;6.280;2023-01-28T04:18:08;17.77;;;10.00;;
25153;SDS011;47555;51.038;6.280;2023-01-28T04:20:34;19.05;;;10.48;;
25153;SDS011;47555;51.038;6.280;2023-01-28T04:23:00;18.23;;;10.15;;
25153;SDS011;47555;51.038;6.280;2023-01-28T04:25:26;22.20;;;10.52;;
25153;SDS011;47555;51.038;6.280;2023-01-28T04:27:51;18.63;;;11.13;;
25153;SDS011;47555;51.038;6.280;2023-01-28T04:30:17;19.55;;;11.10;;
25153;SDS011;47555;51.038;6.280;2023-01-28T04:32:43;22.38;;;10.95;;
25153;SDS011;47555;51.038;6.280;2023-01-28T04:35:14;19.23;;;11.35;;
25153;SDS011;47555;51.038;6.280;2023-01-28T04:37:40;16.58;;;10.15;;
25153;SDS011;47555;51.038;6.280;2023-01-28T04:40:06;17.50;;;9.82;;
25153;SDS011;47555;51.038;6.280;2023-01-28T04:42:33;19.13;;;10.30;;
25153;SDS011;47555;51.038;6.280;2023-01-28T04:44:59;18.67;;;9.48;;
25153;SDS011;47555;51.038;6.280;2023-01-28T04:47:24;16.20;;;10.02;;
25153;SDS011;47555;51.038;6.280;2023-01-28T04:49:50;18.60;;;10.32;;
25153;SDS011;47555;51.038;6.280;2023-01-28T04:52:15;18.17;;;9.18;;
25153;SDS011;47555;51.038;6.280;2023-01-28T04:54:41;17.73;;;9.73;;
25153;SDS011;47555;51.038;6.280;2023-01-28T04:57:06;19.52;;;10.95;;
25153;SDS011;47555;51.038;6.280;2023-01-28T04:59:32;18.50;;;10.60;;
25153;SDS011;47555;51.038;6.280;2023-01-28T05:01:57;15.57;;;9.00;;
25153;SDS011;47555;51.038;6.280;2023-01-28T05:04:23;17.42;;;11.10;;
25153;SDS011;47555;51.038;6.280;2023-01-28T05:06:48;15.55;;;8.73;;
25153;SDS011;47555;51.038;6.280;2023-01-28T05:09:14;20.33;;;10.13;;
25153;SDS011;47555;51.038;6.280;2023-01-28T05:11:40;16.48;;;9.93;;
25153;SDS011;47555;51.038;6.280;2023-01-28T05:14:05;16.75;;;9.57;;
25153;SDS011;47555;51.038;6.280;2023-01-28T05:16:31;17.50;;;9.40;;
25153;SDS011;47555;51.038;6.280;2023-01-28T05:18:58;17.75;;;9.57;;
25153;SDS011;47555;51.038;6.280;2023-01-28T05:21:23;16.27;;;9.27;;
25153;SDS011;47555;51.038;6.280;2023-01-28T05:23:49;15.73;;;8.20;;
25153;SDS011;47555;51.038;6.280;2023-01-28T05:26:15;18.20;;;10.48;;
25153;SDS011;47555;51.038;6.280;2023-01-28T05:28:40;16.60;;;9.75;;
25153;SDS011;47555;51.038;6.280;2023-01-28T05:31:06;15.77;;;9.85;;
25153;SDS011;47555;51.038;6.280;2023-01-28T05:33:31;17.45;;;9.65;;
25153;SDS011;47555;51.038;6.280;2023-01-28T05:35:57;18.48;;;8.77;;
25153;SDS011;47555;51.038;6.280;2023-01-28T05:38:23;17.02;;;9.43;;
25153;SDS011;47555;51.038;6.280;2023-01-28T05:40:49;16.60;;;8.82;;
25153;SDS011;47555;51.038;6.280;2023-01-28T05:43:15;16.98;;;9.27;;
25153;SDS011;47555;51.038;6.280;2023-01-28T05:45:40;17.00;;;9.57;;
25153;SDS011;47555;51.038;6.280;2023-01-28T05:48:06;17.80;;;9.45;;
25153;SDS011;47555;51.038;6.280;2023-01-28T05:50:32;19.77;;;9.27;;
25153;SDS011;47555;51.038;6.280;2023-01-28T05:52:58;18.58;;;9.10;;
25153;SDS011;47555;51.038;6.280;2023-01-28T05:55:23;17.13;;;8.70;;
25153;SDS011;47555;51.038;6.280;2023-01-28T05:57:49;17.85;;;9.02;;
25153;SDS011;47555;51.038;6.280;2023-01-28T06:00:15;19.23;;;9.15;;
25153;SDS011;47555;51.038;6.280;2023-01-28T06:02:41;16.20;;;8.38;;
25153;SDS011;47555;51.038;6.280;2023-01-28T06:05:07;17.35;;;8.68;;
25153;SDS011;47555;51.038;6.280;2023-01-28T06:07:33;15.63;;;8.20;;
25153;SDS011;47555;51.038;6.280;2023-01-28T06:09:58;19.15;;;9.05;;
25153;SDS011;47555;51.038;6.280;2023-01-28T06:12:24;15.60;;;8.68;;
25153;SDS011;47555;51.038;6.280;2023-01-28T06:14:50;16.75;;;8.98;;
25153;SDS011;47555;51.038;6.280;2023-01-28T06:17:15;17.08;;;9.85;;
25153;SDS011;47555;51.038;6.280;2023-01-28T06:19:41;17.25;;;10.13;;
25153;SDS011;47555;51.038;6.280;2023-01-28T06:22:07;20.17;;;10.77;;
25153;SDS011;47555;51.038;6.280;2023-01-28T06:24:33;20.23;;;11.82;;
25153;SDS011;47555;51.038;6.280;2023-01-28T06:26:58;20.73;;;11.68;;
25153;SDS011;47555;51.038;6.280;2023-01-28T06:29:24;19.17;;;10.30;;
25153;SDS011;47555;51.038;6.280;2023-01-28T06:31:50;21.10;;;10.50;;
25153;SDS011;47555;51.038;6.280;2023-01-28T06:34:15;16.67;;;10.52;;
25153;SDS011;47555;51.038;6.280;2023-01-28T06:36:41;18.23;;;10.98;;
25153;SDS011;47555;51.038;6.280;2023-01-28T06:39:06;23.50;;;11.77;;
25153;SDS011;47555;51.038;6.280;2023-01-28T06:41:32;17.45;;;10.77;;
25153;SDS011;47555;51.038;6.280;2023-01-28T06:43:58;19.00;;;10.25;;
25153;SDS011;47555;51.038;6.280;2023-01-28T06:46:23;16.98;;;9.80;;
25153;SDS011;47555;51.038;6.280;2023-01-28T06:48:49;19.58;;;10.70;;
25153;SDS011;47555;51.038;6.280;2023-01-28T06:51:14;21.38;;;11.85;;
25153;SDS011;47555;51.038;6.280;2023-01-28T06:53:40;20.67;;;11.40;;
25153;SDS011;47555;51.038;6.280;2023-01-28T06:56:06;20.83;;;10.75;;
25153;SDS011;47555;51.038;6.280;2023-01-28T06:58:32;22.00;;;12.15;;
25153;SDS011;47555;51.038;6.280;2023-01-28T07:00:58;22.95;;;11.25;;
25153;SDS011;47555;51.038;6.280;2023-01-28T07:03:24;21.80;;;11.02;;
25153;SDS011;47555;51.038;6.280;2023-01-28T07:05:49;17.90;;;9.85;;
25153;SDS011;47555;51.038;6.280;2023-01-28T07:08:15;19.30;;;10.77;;
25153;SDS011;47555;51.038;6.280;2023-01-28T07:10:40;20.67;;;10.57;;
25153;SDS011;47555;51.038;6.280;2023-01-28T07:13:06;23.73;;;11.55;;
25153;SDS011;47555;51.038;6.280;2023-01-28T07:15:31;21.10;;;11.25;;
25153;SDS011;47555;51.038;6.280;2023-01-28T07:17:57;18.80;;;10.95;;
25153;SDS011;47555;51.038;6.280;2023-01-28T07:20:22;21.50;;;10.90;;
25153;SDS011;47555;51.038;6.280;2023-01-28T07:22:48;21.42;;;11.65;;
25153;SDS011;47555;51.038;6.280;2023-01-28T07:25:14;20.42;;;11.45;;
25153;SDS011;47555;51.038;6.280;2023-01-28T07:27:44;21.70;;;11.82;;
25153;SDS011;47555;51.038;6.280;2023-01-28T07:30:11;19.48;;;10.93;;
25153;SDS011;47555;51.038;6.280;2023-01-28T07:32:37;21.08;;;11.20;;
25153;SDS011;47555;51.038;6.280;2023-01-28T07:35:03;21.75;;;11.95;;
25153;SDS011;47555;51.038;6.280;2023-01-28T07:37:29;23.17;;;11.70;;
25153;SDS011;47555;51.038;6.280;2023-01-28T07:39:54;20.42;;;12.20;;
25153;SDS011;47555;51.038;6.280;2023-01-28T07:42:20;20.83;;;11.00;;
25153;SDS011;47555;51.038;6.280;2023-01-28T07:44:45;23.10;;;11.48;;
25153;SDS011;47555;51.038;6.280;2023-01-28T07:47:11;21.27;;;11.43;;
25153;SDS011;47555;51.038;6.280;2023-01-28T07:49:36;18.88;;;10.70;;
25153;SDS011;47555;51.038;6.280;2023-01-28T07:52:04;19.92;;;10.98;;
25153;SDS011;47555;51.038;6.280;2023-01-28T07:54:29;21.48;;;11.35;;
25153;SDS011;47555;51.038;6.280;2023-01-28T07:56:55;23.13;;;12.52;;
25153;SDS011;47555;51.038;6.280;2023-01-28T07:59:21;22.98;;;11.65;;
25153;SDS011;47555;51.038;6.280;2023-01-28T08:01:46;23.30;;;11.05;;
25153;SDS011;47555;51.038;6.280;2023-01-28T08:04:12;20.65;;;11.07;;
25153;SDS011;47555;51.038;6.280;2023-01-28T08:06:37;22.00;;;12.25;;
25153;SDS011;47555;51.038;6.280;2023-01-28T08:09:03;21.00;;;11.52;;
25153;SDS011;47555;51.038;6.280;2023-01-28T08:11:30;21.77;;;12.50;;
25153;SDS011;47555;51.038;6.280;2023-01-28T08:13:56;18.50;;;10.70;;
25153;SDS011;47555;51.038;6.280;2023-01-28T08:16:22;22.75;;;11.82;;
25153;SDS011;47555;51.038;6.280;2023-01-28T08:18:48;22.13;;;11.60;;
25153;SDS011;47555;51.038;6.280;2023-01-28T08:21:13;23.50;;;12.27;;
25153;SDS011;47555;51.038;6.280;2023-01-28T08:23:39;25.73;;;13.27;;
25153;SDS011;47555;51.038;6.280;2023-01-28T08:26:05;25.65;;;13.15;;
25153;SDS011;47555;51.038;6.280;2023-01-28T08:28:31;28.48;;;14.10;;
25153;SDS011;47555;51.038;6.280;2023-01-28T08:30:58;23.30;;;14.15;;
25153;SDS011;47555;51.038;6.280;2023-01-28T08:33:24;25.23;;;13.25;;
25153;SDS011;47555;51.038;6.280;2023-01-28T08:35:50;26.02;;;13.30;;
25153;SDS011;47555;51.038;6.280;2023-01-28T08:38:16;25.48;;;13.15;;
25153;SDS011;47555;51.038;6.280;2023-01-28T08:40:42;29.45;;;15.30;;
25153;SDS011;47555;51.038;6.280;2023-01-28T08:43:07;23.77;;;12.38;;
25153;SDS011;47555;51.038;6.280;2023-01-28T08:48:31;24.10;;;12.05;;
25153;SDS011;47555;51.038;6.280;2023-01-28T08:50:59;22.35;;;12.13;;
25153;SDS011;47555;51.038;6.280;2023-01-28T08:53:25;24.25;;;11.93;;
25153;SDS011;47555;51.038;6.280;2023-01-28T08:55:52;25.83;;;13.43;;
25153;SDS011;47555;51.038;6.280;2023-01-28T08:58:19;25.35;;;13.07;;
25153;SDS011;47555;51.038;6.280;2023-01-28T09:00:44;23.73;;;12.48;;
25153;SDS011;47555;51.038;6.280;2023-01-28T09:03:10;21.15;;;12.25;;
25153;SDS011;47555;51.038;6.280;2023-01-28T09:05:36;24.13;;;12.80;;
25153;SDS011;47555;51.038;6.280;2023-01-28T09:08:12;24.83;;;12.77;;
25153;SDS011;47555;51.038;6.280;2023-01-28T09:10:39;27.60;;;13.65;;
25153;SDS011;47555;51.038;6.280;2023-01-28T09:13:06;27.85;;;13.98;;
25153;SDS011;47555;51.038;6.280;2023-01-28T09:15:33;24.23;;;12.85;;
25153;SDS011;47555;51.038;6.280;2023-01-28T09:17:59;29.10;;;14.27;;
25153;SDS011;47555;51.038;6.280;2023-01-28T09:20:25;27.02;;;13.32;;
25153;SDS011;47555;51.038;6.280;2023-01-28T09:22:51;22.33;;;12.27;;
25153;SDS011;47555;51.038;6.280;2023-01-28T09:25:17;26.15;;;12.68;;
25153;SDS011;47555;51.038;6.280;2023-01-28T09:27:42;28.13;;;13.45;;
25153;SDS011;47555;51.038;6.280;2023-01-28T09:30:08;27.38;;;13.27;;
25153;SDS011;47555;51.038;6.280;2023-01-28T09:32:34;24.55;;;12.77;;
25153;SDS011;47555;51.038;6.280;2023-01-28T09:35:00;31.23;;;14.30;;
25153;SDS011;47555;51.038;6.280;2023-01-28T09:37:26;29.00;;;13.80;;
25153;SDS011;47555;51.038;6.280;2023-01-28T09:39:51;30.02;;;13.50;;
25153;SDS011;47555;51.038;6.280;2023-01-28T09:45:24;30.50;;;14.98;;
25153;SDS011;47555;51.038;6.280;2023-01-28T09:47:55;29.90;;;14.50;;
25153;SDS011;47555;51.038;6.280;2023-01-28T09:50:30;30.70;;;13.60;;
25153;SDS011;47555;51.038;6.280;2023-01-28T09:53:04;33.40;;;15.15;;
25153;SDS011;47555;51.038;6.280;2023-01-28T09:55:35;35.75;;;16.27;;
25153;SDS011;47555;51.038;6.280;2023-01-28T09:58:10;37.22;;;15.80;;
25153;SDS011;47555;51.038;6.280;2023-01-28T10:00:59;31.98;;;14.07;;
25153;SDS011;47555;51.038;6.280;2023-01-28T10:03:38;29.63;;;13.32;;
25153;SDS011;47555;51.038;6.280;2023-01-28T10:14:08;30.08;;;13.88;;
25153;SDS011;47555;51.038;6.280;2023-01-28T10:16:49;30.33;;;13.20;;
25153;SDS011;47555;51.038;6.280;2023-01-28T10:19:23;25.70;;;12.75;;
25153;SDS011;47555;51.038;6.280;2023-01-28T10:22:12;27.05;;;12.02;;
25153;SDS011;47555;51.038;6.280;2023-01-28T10:24:48;29.33;;;12.88;;
25153;SDS011;47555;51.038;6.280;2023-01-28T10:27:19;27.25;;;12.02;;
25153;SDS011;47555;51.038;6.280;2023-01-28T10:29:47;29.63;;;13.20;;
25153;SDS011;47555;51.038;6.280;2023-01-28T10:32:16;29.30;;;12.57;;
25153;SDS011;47555;51.038;6.280;2023-01-28T10:34:57;26.65;;;11.43;;
25153;SDS011;47555;51.038;6.280;2023-01-28T10:37:25;28.80;;;11.90;;
25153;SDS011;47555;51.038;6.280;2023-01-28T10:39:52;25.40;;;12.20;;
25153;SDS011;47555;51.038;6.280;2023-01-28T10:42:26;26.70;;;12.55;;
25153;SDS011;47555;51.038;6.280;2023-01-28T10:44:58;28.85;;;11.60;;
25153;SDS011;47555;51.038;6.280;2023-01-28T10:47:45;27.85;;;12.90;;
25153;SDS011;47555;51.038;6.280;2023-01-28T10:50:24;29.35;;;12.63;;
25153;SDS011;47555;51.038;6.280;2023-01-28T10:55:23;27.75;;;13.27;;
25153;SDS011;47555;51.038;6.280;2023-01-28T10:58:03;24.27;;;11.02;;
25153;SDS011;47555;51.038;6.280;2023-01-28T11:00:32;26.55;;;12.50;;
25153;SDS011;47555;51.038;6.280;2023-01-28T11:03:00;26.08;;;11.80;;
25153;SDS011;47555;51.038;6.280;2023-01-28T11:05:27;28.08;;;12.15;;
25153;SDS011;47555;51.038;6.280;2023-01-28T11:08:04;26.35;;;12.10;;
25153;SDS011;47555;51.038;6.280;2023-01-28T11:10:38;25.98;;;12.55;;
25153;SDS011;47555;51.038;6.280;2023-01-28T11:13:05;28.73;;;12.18;;
25153;SDS011;47555;51.038;6.280;2023-01-28T11:15:39;28.65;;;11.90;;
25153;SDS011;47555;51.038;6.280;2023-01-28T11:18:16;27.58;;;11.98;;
25153;SDS011;47555;51.038;6.280;2023-01-28T11:20:48;26.85;;;12.30;;
25153;SDS011;47555;51.038;6.280;2023-01-28T11:23:29;26.83;;;12.02;;
25153;SDS011;47555;51.038;6.280;2023-01-28T11:26:20;25.40;;;11.50;;
25153;SDS011;47555;51.038;6.280;2023-01-28T11:28:48;26.08;;;11.32;;
25153;SDS011;47555;51.038;6.280;2023-01-28T11:31:16;25.08;;;11.63;;
25153;SDS011;47555;51.038;6.280;2023-01-28T11:33:43;28.23;;;12.68;;
25153;SDS011;47555;51.038;6.280;2023-01-28T11:36:26;21.58;;;9.35;;
25153;SDS011;47555;51.038;6.280;2023-01-28T11:38:54;25.83;;;11.82;;
25153;SDS011;47555;51.038;6.280;2023-01-28T11:41:32;24.75;;;10.75;;
25153;SDS011;47555;51.038;6.280;2023-01-28T11:44:14;22.13;;;9.63;;
25153;SDS011;47555;51.038;6.280;2023-01-28T11:49:19;23.90;;;10.65;;
25153;SDS011;47555;51.038;6.280;2023-01-28T11:51:59;22.95;;;11.25;;
25153;SDS011;47555;51.038;6.280;2023-01-28T11:55:00;25.35;;;11.63;;
25153;SDS011;47555;51.038;6.280;2023-01-28T11:57:41;21.40;;;10.23;;
25153;SDS011;47555;51.038;6.280;2023-01-28T12:00:33;23.42;;;10.48;;
25153;SDS011;47555;51.038;6.280;2023-01-28T12:03:22;21.00;;;9.45;;
25153;SDS011;47555;51.038;6.280;2023-01-28T12:05:52;27.02;;;10.93;;
25153;SDS011;47555;51.038;6.280;2023-01-28T12:08:21;23.08;;;10.65;;
25153;SDS011;47555;51.038;6.280;2023-01-28T12:14:23;20.33;;;10.63;;
25153;SDS011;47555;51.038;6.280;2023-01-28T12:25:18;23.15;;;10.85;;
25153;SDS011;47555;51.038;6.280;2023-01-28T12:28:04;21.08;;;10.18;;
25153;SDS011;47555;51.038;6.280;2023-01-28T12:31:13;20.88;;;10.15;;
25153;SDS011;47555;51.038;6.280;2023-01-28T12:36:57;20.85;;;9.98;;
25153;SDS011;47555;51.038;6.280;2023-01-28T12:39:58;22.83;;;12.00;;
25153;SDS011;47555;51.038;6.280;2023-01-28T12:42:36;21.25;;;10.35;;
25153;SDS011;47555;51.038;6.280;2023-01-28T12:47:53;22.02;;;10.77;;
25153;SDS011;47555;51.038;6.280;2023-01-28T12:50:46;18.20;;;9.13;;
25153;SDS011;47555;51.038;6.280;2023-01-28T12:53:33;21.42;;;10.38;;
25153;SDS011;47555;51.038;6.280;2023-01-28T12:56:18;20.15;;;9.05;;
25153;SDS011;47555;51.038;6.280;2023-01-28T13:04:17;21.10;;;10.18;;
25153;SDS011;47555;51.038;6.280;2023-01-28T13:06:56;21.45;;;10.35;;
25153;SDS011;47555;51.038;6.280;2023-01-28T13:09:26;22.57;;;11.17;;
25153;SDS011;47555;51.038;6.280;2023-01-28T13:11:55;23.00;;;10.70;;
25153;SDS011;47555;51.038;6.280;2023-01-28T13:14:30;23.25;;;10.23;;
25153;SDS011;47555;51.038;6.280;2023-01-28T13:17:22;26.27;;;11.15;;
25153;SDS011;47555;51.038;6.280;2023-01-28T13:19:48;25.65;;;11.63;;
25153;SDS011;47555;51.038;6.280;2023-01-28T13:22:27;23.25;;;11.07;;
25153;SDS011;47555;51.038;6.280;2023-01-28T13:27:53;24.83;;;11.48;;
25153;SDS011;47555;51.038;6.280;2023-01-28T13:30:33;30.88;;;13.68;;
25153;SDS011;47555;51.038;6.280;2023-01-28T13:33:27;29.48;;;13.68;;
25153;SDS011;47555;51.038;6.280;2023-01-28T13:35:55;27.77;;;12.75;;
25153;SDS011;47555;51.038;6.280;2023-01-28T13:38:20;27.13;;;13.50;;
25153;SDS011;47555;51.038;6.280;2023-01-28T13:40:57;29.50;;;13.90;;
25153;SDS011;47555;51.038;6.280;2023-01-28T13:43:26;29.08;;;14.18;;
25153;SDS011;47555;51.038;6.280;2023-01-28T13:46:02;29.30;;;14.10;;
25153;SDS011;47555;51.038;6.280;2023-01-28T13:51:11;33.47;;;15.27;;
25153;SDS011;47555;51.038;6.280;2023-01-28T13:53:54;34.22;;;14.82;;
25153;SDS011;47555;51.038;6.280;2023-01-28T13:56:30;30.10;;;15.30;;
25153;SDS011;47555;51.038;6.280;2023-01-28T14:08:12;33.78;;;14.93;;
25153;SDS011;47555;51.038;6.280;2023-01-28T14:10:57;29.55;;;14.45;;
25153;SDS011;47555;51.038;6.280;2023-01-28T14:16:57;25.75;;;12.93;;
25153;SDS011;47555;51.038;6.280;2023-01-28T14:19:44;26.30;;;12.23;;
25153;SDS011;47555;51.038;6.280;2023-01-28T14:22:14;29.52;;;12.32;;
25153;SDS011;47555;51.038;6.280;2023-01-28T14:24:43;26.67;;;12.38;;
25153;SDS011;47555;51.038;6.280;2023-01-28T14:32:15;25.80;;;12.13;;
25153;SDS011;47555;51.038;6.280;2023-01-28T14:34:43;27.63;;;12.57;;
25153;SDS011;47555;51.038;6.280;2023-01-28T14:37:14;27.15;;;13.15;;
25153;SDS011;47555;51.038;6.280;2023-01-28T14:39:44;29.00;;;13.85;;
25153;SDS011;47555;51.038;6.280;2023-01-28T14:42:18;27.05;;;11.52;;
25153;SDS011;47555;51.038;6.280;2023-01-28T14:44:47;22.45;;;10.52;;
25153;SDS011;47555;51.038;6.280;2023-01-28T14:58:56;25.55;;;11.02;;
25153;SDS011;47555;51.038;6.280;2023-01-28T15:01:27;24.25;;;10.75;;
25153;SDS011;47555;51.038;6.280;2023-01-28T15:03:54;23.52;;;10.57;;
25153;SDS011;47555;51.038;6.280;2023-01-28T15:06:22;21.60;;;10.93;;
25153;SDS011;47555;51.038;6.280;2023-01-28T15:08:50;22.40;;;10.80;;
25153;SDS011;47555;51.038;6.280;2023-01-28T15:11:17;24.00;;;10.60;;
25153;SDS011;47555;51.038;6.280;2023-01-28T15:13:47;23.52;;;11.48;;
25153;SDS011;47555;51.038;6.280;2023-01-28T15:16:26;22.80;;;11.45;;
25153;SDS011;47555;51.038;6.280;2023-01-28T15:18:54;21.63;;;10.45;;
25153;SDS011;47555;51.038;6.280;2023-01-28T15:21:21;22.90;;;10.88;;
25153;SDS011;47555;51.038;6.280;2023-01-28T15:23:49;25.35;;;10.95;;
25153;SDS011;47555;51.038;6.280;2023-01-28T15:26:21;23.45;;;10.98;;
25153;SDS011;47555;51.038;6.280;2023-01-28T15:28:48;24.83;;;11.70;;
25153;SDS011;47555;51.038;6.280;2023-01-28T15:31:22;25.45;;;11.32;;
25153;SDS011;47555;51.038;6.280;2023-01-28T15:33:59;24.35;;;10.98;;
25153;SDS011;47555;51.038;6.280;2023-01-28T15:36:26;24.13;;;11.63;;
25153;SDS011;47555;51.038;6.280;2023-01-28T15:38:53;27.75;;;12.38;;
25153;SDS011;47555;51.038;6.280;2023-01-28T15:41:21;26.88;;;11.05;;
25153;SDS011;47555;51.038;6.280;2023-01-28T15:43:51;21.92;;;11.30;;
25153;SDS011;47555;51.038;6.280;2023-01-28T15:46:17;25.27;;;10.88;;
25153;SDS011;47555;51.038;6.280;2023-01-28T15:48:44;25.95;;;11.13;;
25153;SDS011;47555;51.038;6.280;2023-01-28T15:51:25;26.00;;;12.05;;
25153;SDS011;47555;51.038;6.280;2023-01-28T15:53:55;26.33;;;11.77;;
25153;SDS011;47555;51.038;6.280;2023-01-28T15:56:26;24.08;;;10.80;;
25153;SDS011;47555;51.038;6.280;2023-01-28T15:58:53;26.48;;;11.95;;
25153;SDS011;47555;51.038;6.280;2023-01-28T16:01:20;25.38;;;11.00;;
25153;SDS011;47555;51.038;6.280;2023-01-28T16:03:49;27.35;;;11.43;;
25153;SDS011;47555;51.038;6.280;2023-01-28T16:06:28;21.63;;;11.15;;
25153;SDS011;47555;51.038;6.280;2023-01-28T16:08:58;25.52;;;10.55;;
25153;SDS011;47555;51.038;6.280;2023-01-28T16:11:31;21.90;;;10.40;;
25153;SDS011;47555;51.038;6.280;2023-01-28T16:14:01;28.27;;;11.55;;
25153;SDS011;47555;51.038;6.280;2023-01-28T16:16:33;26.58;;;11.45;;
25153;SDS011;47555;51.038;6.280;2023-01-28T16:19:01;25.35;;;11.32;;
25153;SDS011;47555;51.038;6.280;2023-01-28T16:21:36;24.92;;;9.68;;
25153;SDS011;47555;51.038;6.280;2023-01-28T16:24:27;26.70;;;11.30;;
25153;SDS011;47555;51.038;6.280;2023-01-28T16:26:58;27.42;;;11.60;;
25153;SDS011;47555;51.038;6.280;2023-01-28T16:29:25;29.52;;;11.75;;